KHSD

Sundance Airport

Oklahoma City, Oklahoma, USA
METAR KHSD 222040Z AUTO 18011KT 10SM CLR 22/08 A3009 RMK A01
Observed Flight Rules
Oct-22 @ 20:40 UTC (23 minutes ago) Visual Flight Rules
Wind Visibility Clouds
180° at 11 knots 10 miles
  • Clear skies
Temperatures Readings
Current 22°C / 72°F
Dewpoint 8°C / 46°F
Humidity 41%
Altimeter 30.09" Hg
Pressure 1019 hPa
Elevation 364
METAR KHSD 222040Z AUTO 18011KT 10SM CLR 22/08 A3009 RMK A01
Observed Flight Rules
Oct-22 @ 20:40 UTC
(23 minutes ago)
VFR
Wind Visibility
180° at 11 knots 10 miles
Clouds
  • Clear skies
Temperature Dewpoint
22°C / 72°F 8°C / 46°F
Humidity Altimeter Pressure
41% 30.09" Hg 1019 hPa